Time;durP1;ratioP1;P1;durP2;ratioP2;P2;SDS_P1;SDS_P2;PMS_P1;PMS_P2;Temp;Humidity;BMP_temperature;BMP_pressure;BME280_temperature;BME280_humidity;BME280_pressure;Samples;Min_cycle;Max_cycle;Signal;HPM_P1;HPM_P2
2022/02/23 00:01:02;;;;;;;;;6.00;6.00;;;;;10.92;76.20;102047.75;5039503;28;45266;-87
2022/02/23 00:03:27;;;;;;;;;5.00;4.50;;;;;10.68;76.23;102015.78;5045046;28;45273;-86
2022/02/23 00:05:52;;;;;;;;;3.75;3.50;;;;;10.80;76.16;102053.25;5025860;28;44939;-88
2022/02/23 00:08:18;;;;;;;;;4.50;4.00;;;;;10.66;76.23;102034.94;5040911;28;45503;-87
2022/02/23 00:10:43;;;;;;;;;4.75;4.00;;;;;10.44;76.26;102015.34;5025319;28;45534;-89
2022/02/23 00:13:08;;;;;;;;;5.50;4.00;;;;;10.55;76.29;102061.53;5043359;28;45411;-88
2022/02/23 00:15:34;;;;;;;;;4.25;3.75;;;;;9.61;76.44;101915.19;5043673;28;44959;-89
2022/02/23 00:17:59;;;;;;;;;3.75;3.50;;;;;10.42;76.80;102063.38;5044632;28;45310;-90
2022/02/23 00:20:24;;;;;;;;;4.50;3.50;;;;;9.48;76.67;101907.44;5041775;28;45219;-90
2022/02/23 00:22:50;;;;;;;;;2.25;2.25;;;;;10.33;76.87;102067.28;5024854;28;44821;-90
2022/02/23 00:25:16;;;;;;;;;3.50;2.00;;;;;9.52;76.72;101920.81;5043496;28;45641;-88
2022/02/23 00:27:44;;;;;;;;;5.75;3.00;;;;;10.28;76.98;102052.97;5040348;28;45428;-93
2022/02/23 00:30:09;;;;;;;;;4.00;3.50;;;;;10.25;76.99;102055.47;5037268;28;45467;-86
2022/02/23 00:32:35;;;;;;;;;2.50;2.50;;;;;10.10;77.03;102038.78;5019787;28;45390;-93
2022/02/23 00:35:00;;;;;;;;;3.25;3.00;;;;;9.35;76.87;101923.28;5020066;28;45171;-94
2022/02/23 00:37:26;;;;;;;;;3.25;2.00;;;;;9.82;77.13;102004.78;5036455;28;46385;-91
2022/02/23 00:39:51;;;;;;;;;7.50;5.25;;;;;9.54;76.83;101955.91;5037139;28;44694;-89
2022/02/23 00:42:17;;;;;;;;;3.75;3.00;;;;;9.91;76.78;102018.44;5037370;28;45452;-92
2022/02/23 00:44:42;;;;;;;;;3.50;3.00;;;;;10.06;76.89;102052.56;5020090;28;45504;-88
2022/02/23 00:47:10;;;;;;;;;3.00;2.00;;;;;10.02;76.90;102055.81;5037663;28;46274;-90
2022/02/23 00:49:36;;;;;;;;;5.00;4.25;;;;;8.91;76.82;101890.06;5037536;28;45487;-93
2022/02/23 00:52:03;;;;;;;;;3.75;3.00;;;;;9.18;76.70;101927.53;5036913;28;45261;-90
2022/02/23 00:54:28;;;;;;;;;4.00;3.50;;;;;9.88;76.87;102056.75;5018966;28;45575;-93
2022/02/23 00:56:54;;;;;;;;;2.75;2.75;;;;;9.84;76.92;102060.91;5037398;28;45554;-90
2022/02/23 00:59:19;;;;;;;;;4.00;3.00;;;;;9.78;76.64;102065.78;5036763;28;45394;-93
2022/02/23 01:01:45;;;;;;;;;5.75;3.75;;;;;8.72;76.76;101891.63;5036821;28;44834;-94
2022/02/23 01:04:10;;;;;;;;;7.00;5.00;;;;;9.65;76.92;102058.00;5037227;28;45423;-88
2022/02/23 01:06:35;;;;;;;;;5.00;4.00;;;;;9.66;77.09;102067.72;5037058;28;45347;-93
2022/02/23 01:09:03;;;;;;;;;4.25;4.25;;;;;9.64;77.12;102077.19;5036817;28;45504;-92
2022/02/23 01:11:28;;;;;;;;;5.00;5.00;;;;;8.99;76.93;101968.41;5037607;28;45345;-94
2022/02/23 01:13:53;;;;;;;;;5.50;4.75;;;;;9.56;76.83;102076.75;5036119;28;45194;-91
2022/02/23 01:16:19;;;;;;;;;7.00;4.25;;;;;9.53;76.85;102069.59;5037058;28;46633;-89
2022/02/23 01:18:45;;;;;;;;;6.25;4.50;;;;;8.17;76.60;101848.91;5031317;28;45460;-84
2022/02/23 01:21:10;;;;;;;;;3.00;3.00;;;;;9.46;76.72;102074.41;5023656;28;45593;-94
2022/02/23 01:23:37;;;;;;;;;8.50;4.75;;;;;8.10;76.56;101841.50;5020230;28;45614;-87
2022/02/23 01:26:03;;;;;;;;;4.75;3.75;;;;;9.21;76.79;102038.81;5022386;28;45503;-85
2022/02/23 01:28:29;;;;;;;;;4.50;4.00;;;;;9.34;76.93;102071.91;5012743;28;45936;-87
2022/02/23 01:30:54;;;;;;;;;3.00;2.25;;;;;8.55;76.83;101957.81;5019282;28;45495;-91
2022/02/23 01:33:20;;;;;;;;;5.50;4.75;;;;;9.26;76.62;102068.84;5037817;28;45393;-87
2022/02/23 01:35:45;;;;;;;;;4.50;3.50;;;;;8.14;76.56;101889.72;5017174;28;48477;-92
2022/02/23 01:38:10;;;;;;;;;4.75;4.00;;;;;9.18;76.76;102088.44;5023187;28;44925;-92
2022/02/23 01:40:36;;;;;;;;;9.75;3.50;;;;;8.28;76.82;101946.50;5028694;28;45489;-90
2022/02/23 01:43:01;;;;;;;;;5.00;4.25;;;;;9.13;77.07;102076.75;5014880;28;45282;-92
2022/02/23 01:45:27;;;;;;;;;3.50;3.00;;;;;9.09;76.79;102085.25;5014556;28;47534;-94
2022/02/23 01:47:52;;;;;;;;;7.00;6.00;;;;;7.52;76.63;101837.81;5034439;28;45525;-93
2022/02/23 01:50:18;;;;;;;;;7.50;6.00;;;;;9.02;76.64;102085.69;5011946;28;44868;-89
2022/02/23 01:52:44;;;;;;;;;5.00;5.00;;;;;8.99;76.99;102083.78;5001113;28;45123;-89
2022/02/23 01:55:10;;;;;;;;;9.00;7.50;;;;;8.62;76.83;102016.72;5028423;28;46159;-91
2022/02/23 01:57:36;;;;;;;;;8.00;7.25;;;;;8.93;77.04;102083.41;5037735;28;45238;-94
2022/02/23 02:00:03;;;;;;;;;7.00;6.75;;;;;7.54;76.84;101840.50;5037823;28;44828;-95
2022/02/23 02:02:29;;;;;;;;;8.00;8.00;;;;;7.92;76.59;101918.84;5038224;28;45305;-91
2022/02/23 02:04:55;;;;;;;;;6.50;6.50;;;;;8.84;76.66;102100.25;5037851;28;45676;-92
2022/02/23 02:07:20;;;;;;;;;9.00;8.00;;;;;8.80;77.01;102091.28;5037050;28;44839;-92
2022/02/23 02:09:45;;;;;;;;;8.00;7.75;;;;;7.16;76.82;101820.66;5008053;28;45655;-93
2022/02/23 02:12:11;;;;;;;;;10.25;10.25;;;;;8.77;77.11;102101.59;5017866;28;45357;-92
2022/02/23 02:14:36;;;;;;;;;10.50;9.00;;;;;8.77;77.02;102105.13;5008459;28;46733;-89
2022/02/23 02:17:02;;;;;;;;;7.50;6.25;;;;;8.19;76.56;102011.38;5022775;28;45229;-93
2022/02/23 02:19:27;;;;;;;;;7.50;7.25;;;;;8.43;76.80;102052.28;5022105;28;45187;-95
2022/02/23 02:22:00;;;;;;;;;8.00;7.00;;;;;8.69;76.75;102098.47;5039534;28;44837;-93
2022/02/23 02:24:31;;;;;;;;;8.25;8.25;;;;;8.67;76.62;102104.41;5020213;28;47009;-93
2022/02/23 02:26:57;;;;;;;;;11.25;9.75;;;;;8.65;76.86;102112.19;5038770;28;45192;-92
2022/02/23 02:29:24;;;;;;;;;12.75;11.00;;;;;8.62;76.86;102101.53;5037531;28;45415;-91
2022/02/23 02:31:51;;;;;;;;;10.75;9.50;;;;;8.61;76.58;102096.16;5034462;28;45501;-93
2022/02/23 02:34:17;;;;;;;;;12.25;8.25;;;;;8.23;76.59;102043.09;5019692;28;45294;-90
2022/02/23 02:36:43;;;;;;;;;10.75;7.75;;;;;8.45;76.54;102086.41;5019372;28;45149;-89
2022/02/23 02:39:09;;;;;;;;;9.00;9.00;;;;;6.87;76.68;101805.66;5018453;28;44750;-93
2022/02/23 02:41:36;;;;;;;;;10.00;9.00;;;;;8.47;77.00;102088.34;5019316;28;45268;-93
2022/02/23 02:44:03;;;;;;;;;7.50;7.50;;;;;8.45;77.01;102095.19;5019718;28;46331;-93
2022/02/23 02:46:28;;;;;;;;;8.25;7.25;;;;;8.39;77.02;102100.03;5020262;28;45858;-90
2022/02/23 02:48:54;;;;;;;;;8.25;7.50;;;;;6.54;77.16;101773.84;5002997;28;44895;-89
2022/02/23 02:51:19;;;;;;;;;5.50;5.50;;;;;7.39;77.32;101945.97;5029826;28;44833;-90
2022/02/23 02:53:45;;;;;;;;;12.75;9.50;;;;;8.39;77.21;102107.00;5033424;28;45494;-94
2022/02/23 02:56:10;;;;;;;;;14.00;12.50;;;;;8.39;77.31;102104.38;5018986;28;44796;-91
2022/02/23 02:58:36;;;;;;;;;13.50;13.00;;;;;8.11;77.22;102052.75;5019556;28;44849;-96
2022/02/23 03:01:01;;;;;;;;;11.75;11.75;;;;;8.36;76.99;102097.19;5020053;28;44870;-90
2022/02/23 03:03:27;;;;;;;;;9.00;7.25;;;;;7.88;77.07;102025.09;5039466;28;45765;-92
2022/02/23 03:05:52;;;;;;;;;13.00;11.00;;;;;7.97;76.95;102054.47;5040671;28;44670;-95
2022/02/23 03:08:17;;;;;;;;;11.75;8.50;;;;;8.31;77.03;102108.16;5022496;28;44789;-94
2022/02/23 03:10:43;;;;;;;;;9.00;8.75;;;;;7.71;77.46;102005.66;5035484;28;44842;-93
2022/02/23 03:13:10;;;;;;;;;9.00;8.00;;;;;7.27;77.22;101937.28;5021922;28;46593;-93
2022/02/23 03:15:36;;;;;;;;;8.75;6.00;;;;;8.25;77.19;102101.72;5010899;28;45062;-95
2022/02/23 03:18:01;;;;;;;;;8.50;8.00;;;;;7.65;77.07;102015.72;5033183;28;45422;-92
2022/02/23 03:20:26;;;;;;;;;3.00;3.00;;;;;7.09;76.93;101912.53;5024845;28;44720;-94
2022/02/23 03:22:52;;;;;;;;;7.50;7.00;;;;;6.57;77.26;101834.16;5023038;28;46332;-93
2022/02/23 03:25:17;;;;;;;;;9.00;7.25;;;;;7.23;77.27;101937.88;5034704;28;44804;-94
2022/02/23 03:27:43;;;;;;;;;8.00;7.00;;;;;7.17;76.96;101938.38;5034689;28;44757;-91
2022/02/23 03:30:09;;;;;;;;;7.50;6.00;;;;;8.18;77.08;102119.56;5034906;28;44814;-94
2022/02/23 03:32:34;;;;;;;;;4.75;4.00;;;;;8.17;77.33;102121.25;5042430;28;45539;-92
2022/02/23 03:35:00;;;;;;;;;4.50;3.75;;;;;8.16;76.95;102119.44;5042998;28;44785;-92
2022/02/23 03:37:25;;;;;;;;;9.00;6.50;;;;;7.88;76.76;102082.69;5042720;28;45324;-94
2022/02/23 03:39:50;;;;;;;;;7.50;5.25;;;;;7.89;77.26;102073.13;5041033;28;44843;-92
2022/02/23 03:42:16;;;;;;;;;6.25;4.25;;;;;8.11;77.16;102123.47;5004813;28;46807;-90
2022/02/23 03:44:42;;;;;;;;;8.25;5.50;;;;;7.31;76.96;101986.38;5027338;28;45616;-95
2022/02/23 03:47:08;;;;;;;;;9.50;8.50;;;;;7.66;77.04;102033.22;5019851;28;44915;-89
2022/02/23 03:49:34;;;;;;;;;8.00;6.00;;;;;7.00;76.85;101927.63;5025432;28;45412;-92
2022/02/23 03:51:59;;;;;;;;;6.75;6.75;;;;;7.55;76.96;102026.38;5009290;28;46701;-93
2022/02/23 03:54:25;;;;;;;;;4.75;4.00;;;;;7.84;76.91;102083.28;5044579;28;45465;-93
2022/02/23 03:56:50;;;;;;;;;4.67;4.00;;;;;8.00;77.14;102114.00;5028572;28;45450;-91
2022/02/23 03:59:15;;;;;;;;;6.50;4.75;;;;;7.87;77.23;102106.13;5033932;28;45146;-94
2022/02/23 04:01:47;;;;;;;;;5.00;3.50;;;;;7.97;76.83;102119.00;5037917;28;46193;-93
2022/02/23 04:04:14;;;;;;;;;4.00;4.00;;;;;7.94;77.14;102110.97;5029759;28;45728;-90
2022/02/23 04:06:40;;;;;;;;;7.50;5.50;;;;;6.41;76.95;101854.78;5008961;28;44754;-95
2022/02/23 04:09:08;;;;;;;;;5.25;5.25;;;;;7.89;76.87;102110.66;5005209;28;45334;-94
2022/02/23 04:11:34;;;;;;;;;3.25;3.00;;;;;7.87;77.20;102111.34;5005387;28;48229;-92
2022/02/23 04:14:00;;;;;;;;;5.50;3.75;;;;;6.87;77.08;101947.66;5030270;28;45293;-93
2022/02/23 04:16:26;;;;;;;;;3.50;3.25;;;;;7.84;76.92;102119.91;5017776;28;44917;-95
2022/02/23 04:18:51;;;;;;;;;8.00;4.00;;;;;7.06;77.34;101978.59;5023531;28;44839;-93
2022/02/23 04:21:17;;;;;;;;;8.25;7.00;;;;;7.80;77.37;102104.81;5040105;28;45452;-90
2022/02/23 04:23:42;;;;;;;;;8.25;6.75;;;;;7.10;77.54;101984.94;5038032;28;44810;-92
2022/02/23 04:26:08;;;;;;;;;4.75;4.25;;;;;7.81;77.73;102122.31;5019880;28;45420;-93
2022/02/23 04:28:34;;;;;;;;;8.25;6.75;;;;;7.79;77.11;102097.75;5019818;28;45558;-95
2022/02/23 04:31:01;;;;;;;;;13.00;11.50;;;;;7.79;77.42;102102.09;5000641;28;47589;-95
2022/02/23 04:33:27;;;;;;;;;8.25;7.00;;;;;7.78;77.28;102106.38;5001288;28;45166;-92
2022/02/23 04:35:52;;;;;;;;;12.50;9.00;;;;;7.42;76.99;102049.88;5001836;28;44730;-92
2022/02/23 04:38:18;;;;;;;;;16.75;14.75;;;;;7.72;76.91;102106.88;5001029;28;45323;-93
2022/02/23 04:40:45;;;;;;;;;12.75;10.75;;;;;7.53;77.05;102076.75;5019357;28;46055;-92
2022/02/23 04:43:11;;;;;;;;;13.50;11.75;;;;;6.34;76.84;101870.81;5005497;28;45337;-91
2022/02/23 04:45:36;;;;;;;;;11.50;9.75;;;;;7.34;76.95;102061.50;5025464;28;44726;-89
2022/02/23 04:48:02;;;;;;;;;8.00;4.75;;;;;7.70;77.51;102115.47;5022090;28;45226;-92
2022/02/23 04:50:28;;;;;;;;;9.25;8.50;;;;;7.13;77.61;102037.41;5024064;28;47058;-92
2022/02/23 04:52:53;;;;;;;;;7.00;4.75;;;;;6.96;77.34;101981.38;5041491;28;45431;-89
2022/02/23 04:55:18;;;;;;;;;8.75;7.00;;;;;7.73;77.64;102127.06;5041534;28;44942;-91
2022/02/23 04:57:44;;;;;;;;;7.75;6.00;;;;;7.73;77.46;102120.88;5005553;28;44821;-95
2022/02/23 05:00:10;;;;;;;;;9.00;8.00;;;;;7.62;77.51;102106.16;5020646;28;47420;-90
2022/02/23 05:02:36;;;;;;;;;5.50;5.50;;;;;7.72;77.47;102117.34;5042028;28;45045;-93
2022/02/23 05:05:01;;;;;;;;;8.25;7.75;;;;;7.40;77.52;102062.84;5018582;28;44948;-90
2022/02/23 05:07:27;;;;;;;;;10.25;9.75;;;;;7.42;77.17;102060.34;5023006;28;45212;-92
2022/02/23 05:09:52;;;;;;;;;6.75;4.75;;;;;7.66;77.38;102116.94;5034674;28;46149;-90
2022/02/23 05:12:18;;;;;;;;;6.00;5.75;;;;;7.17;77.17;102034.22;5023449;28;45919;-90
2022/02/23 05:14:43;;;;;;;;;7.00;7.00;;;;;6.67;76.85;101961.97;5011974;28;44842;-94
2022/02/23 05:17:09;;;;;;;;;6.50;4.75;;;;;6.63;77.06;101967.78;5023692;28;44805;-95
2022/02/23 05:19:34;;;;;;;;;12.75;11.25;;;;;7.53;77.07;102106.44;5031838;28;45503;-92
2022/02/23 05:22:02;;;;;;;;;8.00;7.50;;;;;7.47;77.25;102108.63;5038591;28;44777;-95
2022/02/23 05:24:28;;;;;;;;;15.50;14.25;;;;;7.32;77.17;102090.19;5036603;28;44932;-95
2022/02/23 05:26:55;;;;;;;;;9.00;8.00;;;;;7.31;76.88;102082.25;5019182;28;44828;-93
2022/02/23 05:29:21;;;;;;;;;9.00;8.00;;;;;7.44;76.68;102122.44;5038093;28;45310;-94
2022/02/23 05:31:46;;;;;;;;;8.75;7.00;;;;;6.23;76.63;101919.69;5025873;28;44665;-92
2022/02/23 05:34:12;;;;;;;;;6.50;6.50;;;;;7.23;76.73;102093.06;5020229;28;45101;-95
2022/02/23 05:36:37;;;;;;;;;7.25;6.75;;;;;7.35;76.69;102127.03;5002599;28;44840;-95
2022/02/23 05:39:03;;;;;;;;;9.00;8.50;;;;;6.28;76.89;101946.13;5020542;28;45439;-95
2022/02/23 05:41:28;;;;;;;;;7.50;7.25;;;;;6.51;76.62;101993.03;5007301;28;45461;-91
2022/02/23 05:43:54;;;;;;;;;7.00;6.00;;;;;7.27;76.44;102140.34;5029194;28;45399;-91
2022/02/23 05:46:22;;;;;;;;;7.25;7.00;;;;;7.21;76.17;102149.59;5025778;28;44993;-91
2022/02/23 05:48:47;;;;;;;;;8.50;7.75;;;;;6.30;76.21;101992.41;5041827;28;46481;-94
2022/02/23 05:51:35;;;;;;;;;9.00;8.00;;;;;7.13;76.19;102135.06;5028334;28;45129;-91
2022/02/23 05:54:02;;;;;;;;;5.00;5.00;;;;;6.62;75.60;102057.41;5038466;28;44846;-88
2022/02/23 05:56:28;;;;;;;;;7.75;6.00;;;;;7.04;75.82;102142.22;5034520;28;45380;-88
2022/02/23 05:58:55;;;;;;;;;8.25;7.50;;;;;7.00;76.02;102142.84;5016381;28;47593;-86
2022/02/23 06:01:21;;;;;;;;;7.25;6.75;;;;;6.85;75.88;102131.31;5033341;28;45719;-88
2022/02/23 06:03:48;;;;;;;;;9.00;7.00;;;;;6.96;75.99;102153.88;5036714;28;45651;-90
2022/02/23 06:06:15;;;;;;;;;56.25;46.50;;;;;5.79;76.33;101947.75;5017835;28;44757;-94
2022/02/23 06:08:40;;;;;;;;;8.00;8.00;;;;;6.51;76.85;102080.94;5039642;28;45444;-89
2022/02/23 06:11:07;;;;;;;;;8.75;8.50;;;;;6.10;76.60;102004.00;5034541;28;45393;-92
2022/02/23 06:13:33;;;;;;;;;9.25;8.75;;;;;6.94;76.67;102152.84;5033705;28;44881;-91
2022/02/23 06:16:01;;;;;;;;;11.50;9.00;;;;;6.90;76.45;102156.97;5046761;28;44975;-89
2022/02/23 06:18:26;;;;;;;;;63.50;51.25;;;;;6.90;76.51;102174.34;5044397;28;45525;-91
2022/02/23 06:20:54;;;;;;;;;55.00;41.00;;;;;6.90;76.91;102156.06;5024074;28;44829;-93
2022/02/23 06:23:20;;;;;;;;;36.75;32.50;;;;;5.90;76.67;101978.13;5016354;28;45928;-86
2022/02/23 06:25:46;;;;;;;;;20.25;18.00;;;;;6.27;76.45;102057.47;5022364;28;45435;-91
2022/02/23 06:28:11;;;;;;;;;25.50;23.00;;;;;5.13;76.64;101851.69;5021470;28;47087;-90
2022/02/23 06:30:37;;;;;;;;;29.50;26.50;;;;;6.88;76.95;102161.16;5015328;28;45404;-87
2022/02/23 06:33:03;;;;;;;;;10.25;10.25;;;;;6.88;76.72;102155.03;5001501;28;45325;-92
2022/02/23 06:35:29;;;;;;;;;33.50;31.25;;;;;6.30;76.52;102073.34;5028496;28;45142;-86
2022/02/23 06:37:54;;;;;;;;;43.25;38.75;;;;;6.16;76.63;102040.13;5033507;28;47507;-86
2022/02/23 06:40:20;;;;;;;;;28.00;26.00;;;;;5.53;76.35;101943.25;5030857;28;45664;-89
2022/02/23 06:42:46;;;;;;;;;27.00;23.75;;;;;6.11;76.31;102060.66;5045962;28;44770;-91
2022/02/23 06:45:12;;;;;;;;;25.50;22.75;;;;;5.11;76.37;101877.59;5044899;28;47547;-93
2022/02/23 06:47:37;;;;;;;;;21.00;17.75;;;;;6.81;76.61;102186.75;5039895;28;45895;-88
2022/02/23 06:50:03;;;;;;;;;12.00;11.50;;;;;6.79;76.50;102184.00;5024346;28;45124;-90
2022/02/23 06:52:30;;;;;;;;;17.50;15.25;;;;;6.58;76.45;102178.13;5031515;28;44951;-90
2022/02/23 06:54:56;;;;;;;;;11.25;9.00;;;;;6.46;76.29;102152.03;5050343;28;45317;-94
2022/02/23 06:57:22;;;;;;;;;36.50;32.00;;;;;5.96;76.57;102056.94;5023705;28;46140;-92
2022/02/23 06:59:48;;;;;;;;;23.75;19.00;;;;;6.37;76.49;102142.59;5035482;28;45796;-88
2022/02/23 07:02:14;;;;;;;;;27.25;24.75;;;;;5.68;76.61;102013.09;5035848;28;45584;-91
2022/02/23 07:04:39;;;;;;;;;10.25;8.75;;;;;6.75;76.73;102195.06;5035665;28;45334;-93
2022/02/23 07:07:05;;;;;;;;;6.00;6.00;;;;;5.88;76.80;102037.16;5017545;28;47140;-89
2022/02/23 07:09:31;;;;;;;;;12.75;11.25;;;;;5.46;76.85;101954.91;5037441;28;45374;-90
2022/02/23 07:11:56;;;;;;;;;12.00;12.00;;;;;6.77;76.69;102190.84;5018421;28;45531;-91
2022/02/23 07:14:21;;;;;;;;;12.25;11.50;;;;;6.12;76.45;102077.22;5035787;28;45631;-92
2022/02/23 07:16:47;;;;;;;;;12.75;11.00;;;;;6.84;76.10;102202.63;5025294;28;47161;-92
2022/02/23 07:19:12;;;;;;;;;12.50;9.75;;;;;5.54;75.98;101972.03;5030289;28;45104;-89
2022/02/23 07:21:38;;;;;;;;;13.00;11.50;;;;;6.88;76.45;102195.13;5035659;28;45384;-89
2022/02/23 07:24:05;;;;;;;;;12.50;11.50;;;;;6.29;76.05;102101.94;5034185;28;45551;-87
2022/02/23 07:26:31;;;;;;;;;10.50;10.00;;;;;6.84;75.88;102186.94;5034494;28;45614;-92
2022/02/23 07:28:57;;;;;;;;;14.00;13.00;;;;;6.84;75.82;102187.84;5016705;28;45723;-92
2022/02/23 07:31:23;;;;;;;;;10.75;10.75;;;;;6.00;76.14;102051.13;5034626;28;45549;-91
2022/02/23 07:33:48;;;;;;;;;16.00;13.25;;;;;6.63;76.01;102145.41;5016882;28;45432;-92
2022/02/23 07:36:15;;;;;;;;;15.25;12.75;;;;;6.96;76.59;102200.91;5016618;28;47266;-93
2022/02/23 07:38:42;;;;;;;;;78.00;61.50;;;;;6.40;76.58;102096.75;5034566;28;45886;-91
2022/02/23 07:41:10;;;;;;;;;35.50;31.00;;;;;7.07;76.80;102207.81;5034684;28;45358;-92
2022/02/23 07:43:36;;;;;;;;;95.50;81.00;;;;;6.63;76.59;102126.22;5017198;28;45368;-94
2022/02/23 07:46:03;;;;;;;;;19.50;19.25;;;;;7.15;76.80;102214.53;5034475;28;45863;-91
2022/02/23 07:48:28;;;;;;;;;28.00;23.50;;;;;6.56;76.95;102101.38;5016673;28;45912;-88
2022/02/23 07:50:54;;;;;;;;;20.75;19.00;;;;;6.79;76.95;102134.34;5016538;28;45559;-92
2022/02/23 07:53:19;;;;;;;;;26.50;23.75;;;;;7.13;76.88;102187.34;5033641;28;45397;-91
2022/02/23 07:55:45;;;;;;;;;23.00;19.00;;;;;7.12;76.83;102177.69;5034142;28;45463;-91
2022/02/23 07:58:11;;;;;;;;;26.00;22.25;;;;;7.01;76.91;102149.88;5034187;28;45323;-92
2022/02/23 08:00:38;;;;;;;;;18.75;17.50;;;;;7.42;77.22;102215.56;5034218;28;45385;-93
2022/02/23 08:03:04;;;;;;;;;17.00;16.50;;;;;6.50;77.37;102022.53;5034138;28;45391;-94
2022/02/23 08:05:29;;;;;;;;;16.75;13.50;;;;;6.72;77.64;102058.97;5034058;28;45446;-89
2022/02/23 08:07:55;;;;;;;;;22.50;21.25;;;;;7.27;77.68;102133.41;5033541;28;45733;-89
2022/02/23 08:10:22;;;;;;;;;26.50;26.00;;;;;7.34;77.79;102140.91;5034255;28;45489;-92
2022/02/23 08:12:47;;;;;;;;;106.25;91.75;;;;;6.75;78.82;102029.50;5015684;28;45340;-93
2022/02/23 08:20:42;;;;;;;;;29.00;25.50;;;;;7.31;77.83;102113.63;5034023;28;45576;-91
2022/02/23 08:23:10;;;;;;;;;168.75;156.00;;;;;7.54;78.36;102144.91;5034703;28;45510;-92
2022/02/23 08:25:35;;;;;;;;;124.00;111.75;;;;;7.84;78.93;102195.81;5037491;28;46923;-92
2022/02/23 08:28:01;;;;;;;;;18.50;16.75;;;;;7.95;80.32;102207.94;5037357;28;45421;-92
2022/02/23 08:30:26;;;;;;;;;24.50;22.75;;;;;7.87;79.22;102182.94;5037789;28;45384;-90
2022/02/23 08:32:51;;;;;;;;;32.00;31.75;;;;;7.54;79.18;102128.28;5037762;28;45428;-90
2022/02/23 08:35:17;;;;;;;;;52.00;42.25;;;;;7.43;78.70;102090.91;5037238;28;45432;-92
2022/02/23 08:37:43;;;;;;;;;70.50;54.75;;;;;8.25;78.73;102213.44;5037105;28;45257;-92
2022/02/23 08:40:09;;;;;;;;;20.00;17.25;;;;;8.23;78.42;102205.47;5037461;28;45630;-90
2022/02/23 08:42:34;;;;;;;;;18.00;14.50;;;;;7.53;77.65;102077.66;5037187;28;45442;-92
2022/02/23 08:44:59;;;;;;;;;75.00;59.75;;;;;8.15;77.73;102176.94;5020055;28;48019;-90
2022/02/23 08:47:26;;;;;;;;;14.33;13.33;;;;;7.74;77.03;102094.84;5037996;28;45365;-93
2022/02/23 08:49:52;;;;;;;;;40.25;37.75;;;;;7.79;76.91;102097.75;5036970;28;45442;-90
2022/02/23 08:52:18;;;;;;;;;138.00;130.50;;;;;7.57;77.04;102074.44;5036873;28;45321;-93
2022/02/23 08:54:43;;;;;;;;;13.50;13.00;;;;;8.51;77.22;102229.22;5019225;28;47037;-94
2022/02/23 08:57:09;;;;;;;;;20.25;19.00;;;;;8.00;76.78;102134.94;5019265;28;45364;-92
2022/02/23 08:59:35;;;;;;;;;41.50;37.75;;;;;7.74;76.58;102075.63;5019309;28;45545;-92
2022/02/23 09:02:01;;;;;;;;;67.00;55.25;;;;;8.44;76.64;102200.78;5036926;28;45963;-92
2022/02/23 09:04:26;;;;;;;;;17.00;15.75;;;;;8.11;76.48;102133.94;5037062;28;47479;-93
2022/02/23 09:06:52;;;;;;;;;17.50;15.75;;;;;8.53;76.96;102211.00;5018854;28;45498;-85
2022/02/23 09:09:18;;;;;;;;;26.50;26.50;;;;;8.02;76.95;102079.25;5037071;28;45520;-90
2022/02/23 09:11:44;;;;;;;;;20.50;20.00;;;;;8.88;76.87;102215.00;5037343;28;45375;-91
2022/02/23 09:14:11;;;;;;;;;20.25;19.00;;;;;8.73;76.29;102179.13;5036659;28;46459;-94
2022/02/23 09:16:37;;;;;;;;;26.25;25.50;;;;;8.53;76.51;102135.91;5018720;28;46090;-92
2022/02/23 09:19:02;;;;;;;;;20.00;17.75;;;;;8.78;76.14;102168.94;5018729;28;45340;-91
2022/02/23 09:21:27;;;;;;;;;22.00;22.00;;;;;8.75;75.96;102117.22;5018888;28;45391;-91
2022/02/23 09:23:53;;;;;;;;;65.67;53.67;;;;;8.12;75.91;101988.19;5035670;28;45471;-92
2022/02/23 09:26:19;;;;;;;;;26.75;22.75;;;;;8.66;75.63;102084.25;5036492;28;45436;-89
2022/02/23 09:28:45;;;;;;;;;39.50;35.25;;;;;9.30;75.56;102162.63;5036164;28;45346;-94
2022/02/23 09:31:12;;;;;;;;;26.75;26.25;;;;;9.45;74.91;102195.91;5036754;28;45505;-84
2022/02/23 09:33:37;;;;;;;;;23.00;21.50;;;;;9.37;74.94;102191.91;5035342;28;46040;-86
2022/02/23 09:36:04;;;;;;;;;59.00;48.50;;;;;8.32;74.83;101995.63;5034639;28;45345;-92
2022/02/23 09:38:31;;;;;;;;;61.50;50.50;;;;;9.50;75.02;102191.84;5035885;28;45402;-92
2022/02/23 09:40:59;;;;;;;;;52.25;42.00;;;;;9.08;74.84;102104.44;5036886;28;45413;-93
2022/02/23 09:43:24;;;;;;;;;70.25;54.75;;;;;9.35;74.86;102143.66;5018964;28;46387;-94
2022/02/23 09:45:53;;;;;;;;;84.00;71.25;;;;;8.77;74.97;102026.50;5036445;28;45458;-90
2022/02/23 09:48:23;;;;;;;;;32.00;28.50;;;;;9.59;74.64;102167.88;5036478;28;45438;-93
2022/02/23 09:50:52;;;;;;;;;38.00;34.50;;;;;9.04;74.72;102086.69;5018192;28;45435;-92
2022/02/23 09:53:19;;;;;;;;;30.75;27.25;;;;;8.57;74.65;102010.31;5035697;28;45447;-92
2022/02/23 09:55:45;;;;;;;;;29.00;27.25;;;;;9.54;74.91;102185.97;5036041;28;45350;-93
2022/02/23 09:58:11;;;;;;;;;22.00;21.25;;;;;9.07;75.15;102094.75;5036023;28;45384;-94
2022/02/23 10:00:37;;;;;;;;;24.75;22.25;;;;;8.54;75.18;102000.56;5035444;28;45341;-89
2022/02/23 10:03:03;;;;;;;;;45.75;40.50;;;;;8.64;75.27;101986.31;5036023;28;45531;-92
2022/02/23 10:05:37;;;;;;;;;44.50;37.25;;;;;8.97;75.27;102032.06;5034658;28;46509;-93
2022/02/23 10:08:09;;;;;;;;;26.00;21.75;;;;;9.89;75.09;102169.75;5018116;28;45712;-91
2022/02/23 10:10:39;;;;;;;;;25.00;24.00;;;;;9.61;74.65;102100.66;5036228;28;45376;-90
2022/02/23 10:13:05;;;;;;;;;43.50;36.75;;;;;9.66;75.03;102094.88;5035472;28;45396;-88
2022/02/23 10:15:36;;;;;;;;;26.00;23.50;;;;;9.47;75.23;102049.97;5035989;28;45383;-91
2022/02/23 10:18:10;;;;;;;;;23.75;22.00;;;;;9.80;75.12;102101.84;5035789;28;45406;-92
2022/02/23 10:20:39;;;;;;;;;21.75;21.50;;;;;9.96;74.99;102106.28;5017885;28;45269;-93
2022/02/23 10:23:18;;;;;;;;;20.25;15.50;;;;;10.38;75.12;102145.50;5034031;28;47901;-91
2022/02/23 10:25:54;;;;;;;;;28.50;24.25;;;;;9.94;74.85;102046.59;5034348;28;45854;-90
2022/02/23 10:28:22;;;;;;;;;23.00;22.00;;;;;10.12;74.50;102042.41;5017654;28;45361;-94
2022/02/23 10:30:53;;;;;;;;;17.00;12.50;;;;;10.94;73.75;102147.81;5035870;28;45272;-92
2022/02/23 10:33:23;;;;;;;;;10.75;9.75;;;;;10.72;73.44;102067.72;5034853;28;45820;-89
2022/02/23 10:35:57;;;;;;;;;21.50;18.25;;;;;11.05;72.98;102091.44;5017284;28;45445;-88
2022/02/23 10:38:25;;;;;;;;;12.25;11.00;;;;;11.58;72.11;102151.31;5017356;28;45523;-90
2022/02/23 10:40:54;;;;;;;;;20.25;17.25;;;;;11.71;71.66;102143.19;5035017;28;45301;-89
2022/02/23 10:43:36;;;;;;;;;76.75;60.25;;;;;11.14;71.11;102002.47;5017577;28;47373;-94
2022/02/23 10:46:12;;;;;;;;;13.00;11.25;;;;;12.07;71.02;102145.97;5034517;28;45999;-90
2022/02/23 10:48:40;;;;;;;;;12.00;11.00;;;;;12.03;71.02;102101.84;5035689;28;45258;-92
2022/02/23 10:51:14;;;;;;;;;13.50;12.25;;;;;12.32;70.54;102143.75;5034666;28;44833;-91
2022/02/23 10:53:40;;;;;;;;;13.25;13.00;;;;;12.42;70.29;102141.56;5034599;28;46435;-87
2022/02/23 10:56:27;;;;;;;;;13.75;12.00;;;;;12.53;69.83;102129.81;5017514;28;45676;-92
2022/02/23 10:59:06;;;;;;;;;18.50;16.75;;;;;12.21;69.21;102084.28;5017635;28;44731;-90
2022/02/23 11:01:33;;;;;;;;;43.25;37.50;;;;;12.11;69.45;102085.56;5034005;28;45645;-93
2022/02/23 11:03:58;;;;;;;;;13.00;12.00;;;;;11.70;69.81;102020.25;5035054;28;45484;-87
2022/02/23 11:06:24;;;;;;;;;10.50;9.25;;;;;11.47;69.70;101989.22;5016873;28;45555;-88
2022/02/23 11:08:51;;;;;;;;;8.00;6.00;;;;;12.09;68.10;102102.16;5034341;28;45360;-90
2022/02/23 11:11:17;;;;;;;;;6.00;6.00;;;;;11.37;68.22;101983.47;5034397;28;45490;-88
2022/02/23 11:13:43;;;;;;;;;5.50;4.25;;;;;11.52;67.65;102000.88;5016417;28;46442;-91
2022/02/23 11:16:09;;;;;;;;;6.25;5.25;;;;;12.02;67.02;102098.31;5032883;28;45392;-89
2022/02/23 11:18:35;;;;;;;;;11.75;10.50;;;;;11.75;67.59;102046.81;5034693;28;45307;-86
2022/02/23 11:21:02;;;;;;;;;13.00;11.00;;;;;11.51;67.02;101981.53;5016691;28;45506;-86
2022/02/23 11:23:28;;;;;;;;;10.25;9.75;;;;;11.38;66.26;101921.25;5033606;28;45431;-84
2022/02/23 11:25:55;;;;;;;;;3.00;3.00;;;;;12.31;65.78;102038.19;5032542;28;45506;-82